Latest Weather Observations for Scotts Peak

IDT60801

Issued at 3:31 am EDT Monday 15 February 2016 (issued every 30 minutes, with the page automatically refreshed every 10 minutes)

About weather observations | Map of weather stations | Latest weather observations for TAS | Other Formats
Station Details ID: 097083 Name: SCOTTS PEAK DAM Lat: -43.04 Lon: 146.27 Height: 408.0 m
Data from the previous 72 hours. | See also: Recent months at Scotts Peak
Date/Time
EDT
Temp
°C
App
Temp
°C
Dew
Point
Rel
Hum
%
Delta-T
°C
Wind Press
QNH
hPa
Press
MSL
hPa
Rain
since 9 am
mm
Dir
 
Spd
km/h
Gust
km/h
Spd
kts
Gust
kts
15/03:30am 7.4 1.0 5.4 87 0.9 NW 28 35 15 19 - - 2.2
15/03:00am 7.8 1.3 6.3 90 0.7 NW 30 35 16 19 - - 2.2
15/02:30am 8.0 3.0 6.6 91 0.7 WNW 22 26 12 14 - - 2.2
15/02:19am 8.0 2.7 6.6 91 0.7 WNW 24 32 13 17 - - 2.2
15/02:00am 8.0 0.3 6.9 93 0.5 NW 37 44 20 24 - - 2.2
15/01:30am 7.7 0.6 6.6 93 0.5 NW 33 43 18 23 - - 2.2
15/01:00am 8.0 1.0 6.9 93 0.5 NW 33 39 18 21 - - 2.0
15/12:30am 7.7 -1.0 6.2 90 0.7 NW 41 48 22 26 - - 2.0
15/12:00am 8.0 1.0 6.1 88 0.9 NW 32 41 17 22 - - 2.0
 
Date/Time
EDT
Temp
°C
App
Temp
°C
Dew
Point
Rel
Hum
%
Delta-T
°C
Wind Press
QNH
hPa
Press
MSL
hPa
Rain
since 9 am
mm
Dir
 
Spd
km/h
Gust
km/h
Spd
kts
Gust
kts
14/11:30pm 9.1 1.6 4.7 74 2.0 NW 33 41 18 22 - - 1.8
14/11:00pm 8.8 0.1 4.2 73 2.1 NW 39 44 21 24 - - 1.8
14/10:30pm 9.2 1.3 4.4 72 2.2 NW 35 44 19 24 - - 1.8
14/10:00pm 9.3 1.6 3.3 66 2.7 NW 33 46 18 25 - - 1.8
14/09:30pm 9.3 -0.4 2.9 64 2.8 WNW 43 57 23 31 - - 1.8
14/09:00pm 9.7 -0.2 3.0 63 3.0 WNW 44 56 24 30 - - 1.8
14/08:50pm 9.8 1.7 3.3 64 2.9 WNW 35 54 19 29 - - 1.8
14/08:30pm 10.1 3.0 3.4 63 3.0 WNW 30 39 16 21 - - 1.8
14/08:00pm 10.5 3.1 3.8 63 3.0 WNW 32 43 17 23 - - 1.8
14/07:32pm 11.9 3.0 2.9 54 4.0 WNW 39 57 21 31 - - 1.8
14/07:30pm 12.0 3.5 3.0 54 4.0 WNW 37 54 20 29 - - 1.8
14/07:00pm 12.2 3.6 2.4 51 4.4 WNW 37 52 20 28 - - 1.8
14/06:34pm 13.4 3.6 3.2 50 4.7 NW 44 65 24 35 - - 1.8
14/06:30pm 13.3 3.0 2.8 49 4.8 NW 46 59 25 32 - - 1.8
14/06:09pm 14.3 5.9 5.7 56 4.2 WNW 39 63 21 34 - - 1.8
14/06:00pm 12.9 4.9 5.6 61 3.5 NW 37 50 20 27 - - 1.8
14/05:53pm 13.9 4.9 6.5 61 3.6 WNW 43 61 23 33 - - 1.8
14/05:30pm 14.6 4.6 6.2 57 4.1 WNW 48 65 26 35 - - 1.8
14/05:00pm 14.0 3.1 5.6 57 4.1 WNW 52 70 28 38 - - 1.8
14/04:54pm 14.7 4.0 6.3 57 4.1 WNW 52 70 28 38 - - 1.8
14/04:31pm 13.0 -0.2 4.7 57 3.9 WNW 63 87 34 47 - - 1.8
14/04:30pm 13.3 0.6 5.0 57 3.9 WNW 61 87 33 47 - - 1.8
14/04:28pm 13.4 1.5 5.1 57 3.9 WNW 57 87 31 47 - - 1.8
14/04:27pm 13.4 1.5 5.1 57 3.9 WNW 57 80 31 43 - - 1.8
14/04:00pm 12.4 2.8 8.1 75 2.2 WNW 48 67 26 36 - - 1.8
14/03:38pm 10.2 0.9 7.4 83 1.4 W 46 70 25 38 - - 1.8
14/03:35pm 10.8 0.8 6.0 72 2.3 W 48 70 26 38 - - 1.4
14/03:33pm 12.5 2.7 5.4 62 3.4 W 46 70 25 38 - - 1.4
14/03:30pm 14.1 3.5 6.9 62 3.6 WNW 52 74 28 40 - - 1.4
14/03:03pm 12.0 0.4 6.5 69 2.7 WNW 57 76 31 41 - - 1.4
14/03:00pm 12.1 0.5 6.8 70 2.6 WNW 57 72 31 39 - - 1.4
14/02:40pm 12.2 2.9 9.0 81 1.6 W 48 70 26 38 - - 1.4
14/02:30pm 11.3 0.8 7.2 76 2.0 WNW 52 65 28 35 - - 1.4
14/02:00pm 11.3 -1.0 8.7 84 1.3 WNW 63 82 34 44 - - 1.2
14/01:30pm 11.1 -0.3 10.5 96 0.3 NW 61 80 33 43 - - 0.8
14/01:00pm 12.0 -2.1 9.7 86 1.2 NW 74 93 40 50 - - 0.4
14/12:43pm 13.2 1.4 10.6 84 1.4 NW 63 87 34 47 - - 0.4
14/12:30pm 11.9 1.6 9.6 86 1.2 NW 54 72 29 39 - - 0.4
14/12:00pm 15.9 4.2 7.9 59 4.1 WNW 59 80 32 43 - - 0.0
14/11:31am 14.4 3.2 7.7 64 3.4 NW 56 80 30 43 - - 0.0
14/11:30am 14.5 3.3 7.5 63 3.5 NW 56 69 30 37 - - 0.0
14/11:00am 14.1 2.5 8.1 67 3.1 NW 59 87 32 47 - - 0.0
14/10:34am 12.1 1.4 9.7 85 1.2 NW 56 82 30 44 - - 0.0
14/10:30am 12.4 2.0 10.6 89 1.0 NW 56 70 30 38 - - 0.0
14/10:00am 14.2 1.2 7.0 62 3.6 NW 65 83 35 45 - - 0.0
14/09:41am 13.5 2.1 6.8 64 3.3 NW 56 82 30 44 - - 0.0
14/09:30am 13.3 2.8 9.0 75 2.2 NW 54 65 29 35 - - 0.0
14/09:00am 12.1 2.2 8.2 77 2.0 NW 50 61 27 33 - - 2.2
14/08:34am 11.3 0.2 8.2 81 1.6 NW 56 87 30 47 - - 2.2
14/08:30am 11.1 0.8 8.3 83 1.4 NW 52 69 28 37 - - 2.2
14/08:10am 10.9 0.4 8.7 86 1.1 NW 54 72 29 39 - - 2.2
14/08:00am 10.7 0.6 8.8 88 1.0 NW 52 69 28 37 - - 2.2
14/07:30am 10.2 0.2 9.4 95 0.4 NW 52 70 28 38 - - 2.2
14/07:00am 9.6 -0.8 9.3 98 0.2 NW 54 76 29 41 - - 2.2
14/06:44am 9.4 -0.3 8.9 97 0.3 NW 50 69 27 37 - - 2.2
14/06:30am 9.5 -1.9 8.9 96 0.3 NW 59 74 32 40 - - 2.2
14/06:01am 10.0 1.3 8.6 91 0.7 WNW 44 63 24 34 - - 1.2
14/06:00am 10.1 1.5 8.7 91 0.7 WNW 44 59 24 32 - - 1.2
14/05:30am 11.7 2.0 7.6 76 2.0 NW 48 67 26 36 - - 0.6
14/05:00am 11.4 1.1 8.1 80 1.6 NW 52 78 28 42 - - 0.4
14/04:45am 11.5 1.6 8.4 81 1.6 WNW 50 69 27 37 - - 0.4
14/04:30am 11.4 2.2 8.1 80 1.6 NW 46 59 25 32 - - 0.4
14/04:22am 11.6 1.7 8.3 80 1.7 NW 50 69 27 37 - - 0.4
14/04:00am 11.6 1.8 8.6 82 1.5 NW 50 59 27 32 - - 0.4
14/03:30am 11.4 2.9 8.6 83 1.4 NW 43 52 23 28 - - 0.4
14/03:00am 11.4 3.4 7.3 76 2.0 NW 39 50 21 27 - - 0.4
14/02:30am 11.1 4.6 8.0 81 1.5 NW 32 41 17 22 - - 0.4
14/02:00am 10.5 6.4 8.8 89 0.9 NW 20 26 11 14 - - 0.4
14/01:30am 10.6 4.9 8.4 86 1.1 NW 28 43 15 23 - - 0.4
14/01:00am 11.3 6.9 7.6 78 1.8 NW 20 26 11 14 - - 0.4
14/12:30am 11.5 6.3 7.4 76 2.0 NW 24 30 13 16 - - 0.4
14/12:00am 10.8 4.0 6.9 77 1.9 NW 32 41 17 22 - - 0.4
 
Date/Time
EDT
Temp
°C
App
Temp
°C
Dew
Point
Rel
Hum
%
Delta-T
°C
Wind Press
QNH
hPa
Press
MSL
hPa
Rain
since 9 am
mm
Dir
 
Spd
km/h
Gust
km/h
Spd
kts
Gust
kts
13/11:30pm 10.9 4.7 7.8 81 1.5 NW 30 39 16 21 - - 0.4
13/11:00pm 10.7 4.2 8.1 84 1.3 NW 32 41 17 22 - - 0.4
13/10:30pm 10.8 5.2 8.6 86 1.1 NW 28 33 15 18 - - 0.4
13/10:00pm 11.3 6.6 7.8 79 1.7 WNW 22 33 12 18 - - 0.4
13/09:30pm 11.6 7.7 8.8 83 1.4 WNW 19 30 10 16 - - 0.4
13/09:00pm 11.8 8.1 9.4 85 1.2 W 19 24 10 13 - - 0.4
13/08:30pm 12.1 8.2 8.8 80 1.7 NW 19 26 10 14 - - 0.4
13/08:00pm 12.5 9.1 9.1 80 1.7 NW 17 28 9 15 - - 0.4
13/07:30pm 12.9 7.6 9.9 82 1.6 WNW 28 43 15 23 - - 0.4
13/07:00pm 13.5 8.3 11.6 88 1.0 W 30 43 16 23 - - 0.4
13/06:30pm 14.9 11.8 13.3 90 0.9 W 22 33 12 18 - - 0.4
13/06:17pm 14.5 9.0 13.7 95 0.5 WNW 35 54 19 29 - - 0.4
13/06:10pm 13.8 8.7 13.0 95 0.4 WNW 32 46 17 25 - - 0.4
13/06:00pm 13.8 10.9 13.0 95 0.4 WSW 20 28 11 15 - - 0.2
13/05:30pm 14.7 9.8 13.6 93 0.6 WNW 32 48 17 26 - - 0.2
13/05:27pm 14.8 10.2 13.5 92 0.7 WNW 30 48 16 26 - - 0.2
13/05:00pm 16.0 10.7 13.1 83 1.6 NW 33 44 18 24 - - 0.0
13/04:30pm 17.8 11.2 12.5 71 3.0 NW 39 59 21 32 - - 0.0
13/04:00pm 21.0 15.0 13.4 62 4.4 NNW 37 54 20 29 - - 0.0
13/03:30pm 18.9 12.5 11.9 64 3.9 NNW 37 44 20 24 - - 0.0
13/03:00pm 18.2 12.2 12.2 68 3.4 NNW 35 48 19 26 - - 0.0
13/02:30pm 17.6 12.3 11.2 66 3.5 NNW 30 35 16 19 - - 0.0
13/02:00pm 17.4 10.4 11.4 68 3.3 NNW 39 48 21 26 - - 0.0
13/01:30pm 17.3 10.6 11.1 67 3.4 NNW 37 50 20 27 - - 0.0
13/01:00pm 17.6 12.0 11.4 67 3.4 NNW 32 41 17 22 - - 0.0
13/12:30pm 17.4 11.1 11.2 67 3.4 NNW 35 44 19 24 - - 0.0
13/12:00pm 17.2 12.2 10.8 66 3.5 NNW 28 35 15 19 - - 0.0
13/11:30am 18.2 11.9 9.8 58 4.5 NNW 33 41 18 22 - - 0.0
13/11:00am 19.8 13.4 12.1 61 4.4 NNW 37 46 20 25 - - 0.0
13/10:30am 18.5 13.8 10.8 61 4.2 NW 26 39 14 21 - - 0.0
13/10:00am 16.5 10.1 10.6 68 3.2 NNW 35 54 19 29 - - 0.0
13/09:52am 16.4 10.8 10.3 67 3.3 NW 30 54 16 29 - - 0.0
13/09:30am 15.5 12.0 10.1 70 2.9 NNW 19 32 10 17 - - 0.0
13/09:00am 15.3 12.2 10.3 72 2.7 NW 17 26 9 14 - - 0.0
13/08:30am 14.9 12.4 10.9 77 2.2 NNW 15 26 8 14 - - 0.0
13/08:00am 14.6 11.0 10.6 77 2.1 W 20 33 11 18 - - 0.0
13/07:30am 15.1 11.2 10.9 76 2.3 NW 22 32 12 17 - - 0.0
13/07:00am 15.0 9.6 11.0 77 2.2 NNW 30 41 16 22 - - 0.0
13/06:44am 15.0 9.1 10.6 75 2.4 NNW 32 50 17 27 - - 0.0
13/06:30am 14.9 7.7 10.7 76 2.3 NNW 39 54 21 29 - - 0.0
13/06:00am 14.9 8.1 10.7 76 2.3 NW 37 48 20 26 - - 0.0
13/05:49am 14.8 8.3 10.2 74 2.5 NW 35 54 19 29 - - 0.0
13/05:30am 14.8 10.0 10.4 75 2.4 NW 26 37 14 20 - - 0.0
13/05:00am 14.8 10.1 10.6 76 2.3 NNW 26 35 14 19 - - 0.0
13/04:30am 14.8 8.8 10.8 77 2.2 NNW 33 43 18 23 - - 0.0
13/04:00am 14.8 9.1 11.0 78 2.1 NNW 32 43 17 23 - - 0.0
13/03:30am 14.8 9.1 11.2 79 2.0 NNW 32 43 17 23 - - 0.0
13/03:00am 14.9 9.1 10.9 77 2.2 NNW 32 43 17 23 - - 0.0
13/02:30am 14.7 10.2 11.5 81 1.8 NNW 26 35 14 19 - - 0.0
13/02:00am 14.5 9.9 12.2 86 1.3 NNW 28 35 15 19 - - 0.0
13/01:30am 13.5 10.2 11.7 89 1.0 NW 20 32 11 17 - - 0.0
13/01:00am 12.3 11.2 10.7 90 0.8 NW 7 9 4 5 - - 0.0
13/12:30am 12.7 10.4 10.4 86 1.2 WNW 13 19 7 10 - - 0.0
13/12:00am 13.0 10.7 10.4 84 1.4 W 13 19 7 10 - - 0.0
 
Date/Time
EDT
Temp
°C
App
Temp
°C
Dew
Point
Rel
Hum
%
Delta-T
°C
Wind Press
QNH
hPa
Press
MSL
hPa
Rain
since 9 am
mm
Dir
 
Spd
km/h
Gust
km/h
Spd
kts
Gust
kts
12/11:30pm 13.8 11.9 10.4 80 1.8 W 11 17 6 9 - - 0.0
12/11:00pm 14.8 14.1 11.4 80 1.9 WSW 6 9 3 5 - - 0.0
12/10:30pm 14.8 14.3 10.8 77 2.2 W 4 9 2 5 - - 0.0
12/10:00pm 15.5 13.1 11.5 77 2.2 NW 15 19 8 10 - - 0.0
12/09:30pm 16.0 11.1 11.4 74 2.5 W 28 33 15 18 - - 0.0
12/09:00pm 16.8 12.9 12.1 74 2.6 WNW 24 32 13 17 - - 0.0
12/08:30pm 17.5 14.6 12.2 71 3.0 W 19 24 10 13 - - 0.0
12/08:00pm 17.6 15.0 11.9 69 3.2 WSW 17 20 9 11 - - 0.0
12/07:30pm 18.5 15.9 12.0 66 3.7 WSW 17 24 9 13 - - 0.0
12/07:00pm 19.9 15.6 12.2 61 4.4 WSW 26 33 14 18 - - 0.0
12/06:30pm 20.3 15.6 12.0 59 4.7 WSW 28 35 15 19 - - 0.0
12/06:00pm 21.9 18.9 12.5 55 5.4 SW 20 28 11 15 - - 0.0
12/05:30pm 22.5 18.7 12.4 52 5.8 WSW 24 30 13 16 - - 0.0
12/05:00pm 22.8 18.1 12.1 51 6.2 WSW 28 35 15 19 - - 0.0
12/04:30pm 26.4 23.9 9.7 35 9.4 NW 13 19 7 10 - - 0.0
12/04:00pm 25.1 22.6 9.8 38 8.6 NW 13 17 7 9 - - 0.0
12/03:30pm 25.3 23.5 10.7 40 8.3 WNW 11 17 6 9 - - 0.0
12/03:00pm 27.2 25.8 13.5 42 8.2 W 13 20 7 11 - - 0.0
12/02:30pm 25.1 22.4 10.2 39 8.4 NW 15 22 8 12 - - 0.0
12/02:00pm 25.7 23.4 11.8 42 8.1 NW 15 20 8 11 - - 0.0
12/01:30pm 25.0 23.2 12.2 44 7.5 NNW 13 20 7 11 - - 0.0
12/01:00pm 23.7 21.3 11.4 46 7.0 NW 15 19 8 10 - - 0.0
12/12:30pm 21.5 19.6 11.8 54 5.5 NW 13 15 7 8 - - 0.0
12/12:00pm 21.0 18.8 10.8 52 5.7 NW 13 17 7 9 - - 0.0
12/11:30am 20.2 18.8 10.9 55 5.2 NW 9 17 5 9 - - 0.0
12/11:00am 19.1 17.8 11.2 60 4.4 N 9 17 5 9 - - 0.0
12/10:30am 17.4 15.9 10.5 64 3.8 NNW 9 11 5 6 - - 0.0
12/10:00am 16.9 15.5 11.0 68 3.2 NNW 9 13 5 7 - - 0.0
12/09:30am 15.0 13.8 10.2 73 2.6 SE 7 13 4 7 - - 0.0
12/09:00am 14.0 12.8 10.2 78 2.0 ESE 7 13 4 7 - - 0.2
12/08:30am 12.8 11.1 10.0 83 1.5 SSE 9 13 5 7 - - 0.2
12/08:00am 11.9 10.1 9.6 86 1.2 SE 9 11 5 6 - - 0.2
12/07:30am 11.5 10.2 9.9 90 0.8 ESE 7 9 4 5 - - 0.2
12/07:00am 11.0 9.2 9.6 91 0.7 SE 9 11 5 6 - - 0.2
12/06:30am 10.8 8.9 9.1 89 0.9 SSE 9 11 5 6 - - 0.2
12/06:00am 11.3 9.3 8.7 84 1.3 SE 9 11 5 6 - - 0.2
12/05:30am 11.7 10.1 8.9 83 1.4 ESE 7 9 4 5 - - 0.2
12/05:00am 11.9 10.0 8.9 82 1.5 ESE 9 11 5 6 - - 0.2
12/04:30am 11.9 9.9 8.6 80 1.7 ESE 9 11 5 6 - - 0.2
12/04:00am 11.9 9.9 8.6 80 1.7 SE 9 11 5 6 - - 0.2

Other Formats:

Comma delimited format used in spreadsheet applications
http://www.bom.gov.au/fwo/IDT60801/IDT60801.95958.axf

JavaScript Object Notation format (JSON) in row-major order
http://www.bom.gov.au/fwo/IDT60801/IDT60801.95958.json